createdAt,value
2024-04-17T00:02:35.393Z,22.3
2024-04-17T00:08:13.129Z,22.2
2024-04-17T00:13:49.202Z,22.2
2024-04-17T00:19:25.851Z,22.2
2024-04-17T00:25:02.430Z,22.3
2024-04-17T00:30:38.932Z,22.3
2024-04-17T00:36:15.609Z,22.2
2024-04-17T00:41:51.621Z,22.2
2024-04-17T00:47:28.856Z,22.2
2024-04-17T00:53:06.091Z,22.2
2024-04-17T00:58:42.226Z,22.2
2024-04-17T01:04:18.567Z,22.3
2024-04-17T01:09:55.314Z,22.3
2024-04-17T01:15:32.921Z,22.2
2024-04-17T01:21:10.117Z,22.2
2024-04-17T01:26:46.609Z,22.2
2024-04-17T01:32:23.440Z,22.3
2024-04-17T01:37:59.591Z,22.2
2024-04-17T01:43:35.691Z,22.2
2024-04-17T01:49:16.272Z,22.2
2024-04-17T01:54:51.839Z,22.2
2024-04-17T02:00:27.518Z,22.2
2024-04-17T02:05:49.446Z,22.2
2024-04-17T02:11:10.324Z,22.2
2024-04-17T02:16:47.044Z,22.2
2024-04-17T02:22:08.659Z,22.2
2024-04-17T02:27:44.864Z,22.2
2024-04-17T02:33:22.141Z,22.2
2024-04-17T02:38:58.505Z,22.2
2024-04-17T02:44:33.796Z,22.2
2024-04-17T02:50:10.684Z,22.1
2024-04-17T02:55:46.822Z,22.2
2024-04-17T03:01:22.679Z,22.2
2024-04-17T03:06:59.777Z,22.2
2024-04-17T03:12:36.392Z,22.2
2024-04-17T03:18:15.491Z,22.2
2024-04-17T03:23:36.507Z,22.2
2024-04-17T03:29:13.513Z,22.2
2024-04-17T03:34:49.723Z,22.2
2024-04-17T03:40:25.789Z,22.2
2024-04-17T03:46:01.883Z,22.1
2024-04-17T03:51:38.772Z,22.2
2024-04-17T03:57:15.122Z,22.2
2024-04-17T04:02:51.238Z,22.2
2024-04-17T04:08:28.529Z,22.1
2024-04-17T04:14:05.018Z,22.2
2024-04-17T04:19:42.994Z,22.1
2024-04-17T04:25:18.796Z,22.1
2024-04-17T04:30:56.918Z,22.2
2024-04-17T04:36:34.054Z,22.1
2024-04-17T04:42:10.247Z,22.1
2024-04-17T04:47:46.743Z,22.2
2024-04-17T04:53:28.340Z,22.1
2024-04-17T04:59:04.982Z,22.1
2024-04-17T05:04:43.024Z,22.1
2024-04-17T05:10:19.755Z,22.1
2024-04-17T05:15:56.361Z,22.1
2024-04-17T05:21:33.889Z,22.1
2024-04-17T05:26:58.639Z,22.1
2024-04-17T05:32:34.392Z,22.1
2024-04-17T05:38:11.276Z,22.1
2024-04-17T05:43:48.087Z,22.1
2024-04-17T05:49:24.455Z,22.1
2024-04-17T05:55:06.124Z,22.1
2024-04-17T06:00:42.658Z,22.1
2024-04-17T06:06:20.303Z,22.1
2024-04-17T06:11:59.660Z,22.1
2024-04-17T06:17:38.863Z,22.1
2024-04-17T06:23:19.061Z,22.1
2024-04-17T06:28:55.721Z,22.1
2024-04-17T06:34:32.816Z,22.1
2024-04-17T06:40:09.079Z,22.1
2024-04-17T06:45:55.803Z,22.1
2024-04-17T06:51:33.203Z,22.1
2024-04-17T06:57:12.525Z,22.1
2024-04-17T07:02:35.045Z,22.1
2024-04-17T07:08:07.784Z,22.1
2024-04-17T07:13:45.554Z,22.1
2024-04-17T07:19:21.782Z,22.1
2024-04-17T07:24:58.234Z,22.1
2024-04-17T07:30:35.685Z,22.1
2024-04-17T07:35:57.574Z,22.1
2024-04-17T07:41:20.140Z,22.1
2024-04-17T07:46:55.951Z,22.1
2024-04-17T07:52:37.764Z,22.1
2024-04-17T07:58:17.154Z,22.1
2024-04-17T08:03:53.944Z,22.1
2024-04-17T08:09:30.422Z,22.1
2024-04-17T08:15:10.834Z,22.1
2024-04-17T08:20:47.823Z,22.1
2024-04-17T08:26:25.226Z,22.1
2024-04-17T08:32:01.644Z,22.1
2024-04-17T08:37:39.272Z,22.1
2024-04-17T08:43:19.193Z,22.1
2024-04-17T08:49:09.522Z,22.1
2024-04-17T08:54:30.495Z,22.1
2024-04-17T09:00:07.152Z,22.1
2024-04-17T09:05:28.626Z,22.1
2024-04-17T09:11:04.874Z,22.1
2024-04-17T09:16:52.701Z,22.1
2024-04-17T09:22:32.136Z,22.1
2024-04-17T09:28:08.503Z,22.1
2024-04-17T09:33:47.105Z,22.1
2024-04-17T09:39:26.374Z,22.1
2024-04-17T09:45:14.646Z,22.1
2024-04-17T09:50:51.377Z,22.1
2024-04-17T09:56:40.836Z,22.1
2024-04-17T10:02:26.742Z,22.1
2024-04-17T10:08:06.891Z,22.1
2024-04-17T10:13:46.238Z,22.1
2024-04-17T10:19:42.303Z,22.1
2024-04-17T10:25:23.824Z,22.1
2024-04-17T10:31:04.156Z,22.1
2024-04-17T10:36:25.079Z,22.1
2024-04-17T10:42:19.758Z,22.1
2024-04-17T10:47:56.506Z,22.1
2024-04-17T10:53:33.439Z,22.1
2024-04-17T10:59:12.376Z,22.1
2024-04-17T11:04:49.298Z,22.1
2024-04-17T11:10:36.193Z,22.1
2024-04-17T11:16:13.184Z,22.1
2024-04-17T11:21:50.639Z,22.1
2024-04-17T11:27:28.292Z,22.1
2024-04-17T11:33:15.942Z,22.1
2024-04-17T11:38:52.602Z,22.1
2024-04-17T11:44:36.128Z,22.1
2024-04-17T11:50:17.558Z,22
2024-04-17T11:55:55.058Z,22.1
2024-04-17T17:18:50.650Z,21.8
2024-04-17T17:24:37.737Z,21.8
2024-04-17T17:30:23.327Z,21.8
2024-04-17T17:36:06.903Z,21.8
2024-04-17T17:41:48.054Z,21.8
2024-04-17T17:47:13.939Z,21.8
2024-04-17T17:52:56.664Z,21.8
2024-04-17T17:58:39.690Z,21.8
2024-04-17T18:04:24.982Z,21.8
2024-04-17T18:10:07.801Z,21.8
2024-04-17T18:15:49.162Z,21.8
2024-04-17T18:21:25.950Z,21.8
2024-04-17T18:26:18.323Z,21.8
2024-04-17T18:31:29.222Z,21.8
2024-04-17T18:36:40.270Z,21.8
2024-04-17T18:41:50.272Z,21.8
2024-04-17T18:46:56.073Z,21.8
2024-04-17T18:51:48.201Z,21.8
2024-04-17T18:56:58.374Z,21.8
2024-04-17T19:02:19.916Z,21.8
2024-04-17T19:07:40.813Z,21.7
2024-04-17T19:13:07.498Z,21.7
2024-04-17T19:18:13.172Z,21.7
2024-04-17T19:23:19.084Z,21.7
2024-04-17T19:28:25.916Z,21.7
2024-04-17T19:33:47.692Z,21.7
2024-04-17T19:39:13.613Z,21.7
2024-04-17T19:45:10.375Z,21.7
2024-04-17T19:50:52.243Z,21.7
2024-04-17T19:56:28.159Z,21.7
2024-04-17T20:02:18.979Z,21.6
2024-04-17T20:07:58.660Z,21.7
2024-04-17T20:13:21.416Z,25.9
2024-04-17T20:18:45.542Z,29.1
2024-04-17T20:24:34.115Z,31.3
2024-04-17T20:30:22.347Z,27.2
2024-04-17T20:35:46.929Z,26.2
2024-04-17T20:41:20.006Z,24.8
2024-04-17T20:46:56.288Z,24.4
2024-04-17T20:52:34.277Z,23.9
2024-04-17T20:58:11.259Z,23.8
2024-04-17T21:03:49.777Z,23.5
2024-04-17T21:09:27.517Z,23.3
2024-04-17T21:15:04.352Z,23.1
2024-04-17T21:20:42.095Z,22.9
2024-04-17T21:26:18.800Z,22.8
2024-04-17T21:31:56.178Z,25.8
2024-04-17T21:37:17.608Z,29.6
2024-04-17T21:42:39.148Z,30.1
2024-04-17T21:48:15.955Z,26.8
2024-04-17T21:53:52.816Z,25.4
2024-04-17T21:59:31.938Z,24.7
2024-04-17T22:05:10.464Z,24.3
2024-04-17T22:10:47.351Z,24.1
2024-04-17T22:16:28.565Z,23.8
2024-04-17T22:22:05.699Z,23.6
2024-04-17T22:27:42.188Z,27.9
2024-04-17T22:33:19.416Z,30.7
2024-04-17T22:38:58.843Z,27.5
2024-04-17T22:44:35.071Z,26
2024-04-17T22:50:16.204Z,24.9
2024-04-17T22:55:36.963Z,24.6
2024-04-17T23:01:13.727Z,24.3
2024-04-17T23:06:51.104Z,24
2024-04-17T23:12:28.559Z,23.8
2024-04-17T23:18:06.318Z,23.6
2024-04-17T23:23:53.002Z,23.4
2024-04-17T23:29:29.114Z,27.3
2024-04-17T23:34:50.576Z,30.4
2024-04-17T23:40:28.212Z,27.6
2024-04-17T23:46:05.369Z,26.4
2024-04-17T23:51:41.909Z,25
2024-04-17T23:57:18.791Z,24.6
